Stagione 2024 · Round 2

Saudi Arabian Grand Prix

2024-03-09 · Jeddah Corniche Circuito · Saudi Arabia · Saudi Arabian Grand Prix · 50Lap · 308.450km
Red Bull 1:20:43.273
Vittoria di squadra 43pt P1 · P2 1-2
Red Bull +13.643
Ferrari +18.639
Giro veloce
1:31.632 · L50
Ritiro
2
Lance Stroll L5 Pierre Gasly L1
Meteo
26°/32°
media aria/pista · asciutto · umidità 62%
Safety car
1
schierata al giro L7
Uso gomme Direzione gara
Storylines · This Grand Prix & circuit
Most SC/VSC · all-time P31
Arrivo più ravvicinato · all-time P47
Circuito Info
Jeddah Corniche Circuito Jeddah, Saudi Arabia
50Lap 308.450km 5 gare held (2021–) Record del giro 1:30.734 · Lewis Hamilton (2021)
Record Watch · Active drivers ranked at this Grand Prix
P1 Max Verstappen 2 vittorie · GP #1
P2 Lewis Hamilton 1 vittorie · → Max Verstappen -1
P2 Oscar Piastri 1 vittorie · → Max Verstappen -1
P1 Sergio Pérez 2 · GP #1
P1 Max Verstappen 2 · GP #1
P1 Max Verstappen 5 · GP #1
P1 Fernando Alonso 5 partenze · GP #1
P1 Pierre Gasly 5 partenze · GP #1
P1 Lewis Hamilton 5 partenze · GP #1
Gara Trace · position by lap
SC · giri 7–9 partenza da fermo SG 1 5 9 13 17 21 25 29 33 37 41 45 49 FIN Verstappen · sosta ai box L7 Verstappen VER Verstappen VER Pérez · sosta ai box L7 Pérez · +5s aggiunto a fine gara Pérez PER Pérez PER Leclerc · sosta ai box L7 Leclerc LEC Leclerc LEC Piastri · sosta ai box L7 Piastri PIA Piastri PIA Alonso · sosta ai box L7 Alonso ALO Alonso ALO Russell · sosta ai box L7 Russell RUS Russell RUS Bearman · sosta ai box L7 Bearman BEA Bearman BEA Norris · sosta ai box L37 Norris NOR Norris NOR Hamilton · sosta ai box L36 Hamilton HAM Hamilton HAM Hülkenberg · sosta ai box L33 Hülkenberg HUL Hülkenberg HUL Albon · sosta ai box L7 Albon ALB Albon ALB Magnussen · sosta ai box L7 Magnussen · +20s aggiunto a fine gara Magnussen MAG Magnussen MAG Ocon · sosta ai box L7 Ocon OCO Ocon OCO Sargeant · sosta ai box L7 Sargeant SAR Sargeant SAR Tsunoda · sosta ai box L7 Tsunoda · +5s aggiunto a fine gara Tsunoda TSU Tsunoda TSU Ricciardo · sosta ai box L7 Ricciardo RIC Ricciardo RIC Bottas · sosta ai box L7 Bottas · sosta ai box L35 Bottas BOT Bottas BOT Zhou · sosta ai box L41 Zhou ZHO Zhou ZHO Stroll · ritiro L5 Stroll STR Stroll STR Gasly · ritiro L1 Gasly GAS Gasly GAS
SC·VSC sosta ai box penalità scontata ai box SG Griglia di partenza FIN classifica ufficiale penalità aggiunta a fine gara vettura ferma posizione a ogni giro (dal 1996)
PosPilotaTeamGrigliaGiroTempo / StatoPunti
1 1 Max Verstappen Red Bull 1 50 1:20:43.273 25
2 11 Sergio Pérez Red Bull 3 50 +13.643 18
3 16 Charles Leclerc FL Ferrari 2 50 +18.639 16
4 81 Oscar Piastri McLaren 5 50 +32.007 12
5 14 Fernando Alonso Aston Martin 4 50 +35.759 10
6 63 George Russell Mercedes 7 50 +39.936 8
7 50 Oliver Bearman Ferrari 11 50 +42.679 6
8 4 Lando Norris McLaren 6 50 +45.708 4
9 44 Lewis Hamilton Mercedes 8 50 +47.391 2
10 27 Nico Hülkenberg Haas F1 Team 15 50 +1:16.996 1
11 23 Alexander Albon Williams 12 50 +1:28.354
12 20 Kevin Magnussen Haas F1 Team 13 50 +1:45.737
13 31 Esteban Ocon Alpine F1 Team 17 49 +4.001
14 2 Logan Sargeant Williams 19 49 +6.785
15 22 Yuki Tsunoda RB F1 Team 9 49 +10.533
16 3 Daniel Ricciardo RB F1 Team 14 49 +20.715
17 77 Valtteri Bottas Sauber 16 49 +23.115
18 24 Guanyu Zhou Sauber 20 49 +29.553
R 18 Lance Stroll Aston Martin 10 5 Retired
R 10 Pierre Gasly Alpine F1 Team 18 1 Retired
PosPilotaTeamQ1Q2Q3Distacco dalla pole
1 1 Max Verstappen Red Bull 1:28.171 1:28.033 1:27.472 POLE Q3
2 16 Charles Leclerc Ferrari 1:28.318 1:28.112 1:27.791 +0.319 Q3
3 11 Sergio Pérez Red Bull 1:28.638 1:28.467 1:27.807 +0.335 Q3
4 14 Fernando Alonso Aston Martin 1:28.706 1:28.122 1:27.846 +0.374 Q3
5 81 Oscar Piastri McLaren 1:28.755 1:28.343 1:28.089 +0.617 Q3
6 4 Lando Norris McLaren 1:28.805 1:28.479 1:28.132 +0.660 Q3
7 63 George Russell Mercedes 1:28.749 1:28.448 1:28.316 +0.844 Q3
8 44 Lewis Hamilton Mercedes 1:28.994 1:28.606 1:28.460 +0.988 Q3
9 22 Yuki Tsunoda RB F1 Team 1:28.988 1:28.564 1:28.547 +1.075 Q3
10 18 Lance Stroll Aston Martin 1:28.250 1:28.578 1:28.572 +0.778 Q1
11 50 Oliver Bearman Ferrari 1:28.984 1:28.642 +1.170 Q2
12 23 Alexander Albon Williams 1:29.107 1:28.980 +1.508 Q2
13 20 Kevin Magnussen Haas F1 Team 1:29.069 1:29.020 +1.548 Q2
14 3 Daniel Ricciardo RB F1 Team 1:29.065 1:29.025 +1.553 Q2
15 27 Nico Hülkenberg Haas F1 Team 1:29.055 +1.583 Q1
16 77 Valtteri Bottas Sauber 1:29.179 +1.707 Q1
17 31 Esteban Ocon Alpine F1 Team 1:29.475 +2.003 Q1
18 10 Pierre Gasly Alpine F1 Team 1:29.479 +2.007 Q1
19 2 Logan Sargeant Williams 1:29.526 +2.054 Q1
20 24 Guanyu Zhou Sauber
Griglia di partenza
Ufficiale
Final grid as classificato, including any dalla pit lane partenze. Source: Jolpica-F1. The arrow compares the grid slot with the le qualifiche classification; hover a drop to see the stewards document behind it.
Nessun dato per questa sessione.
PosPilotaGiro miglioreDistaccoGiri
1 1 Max Verstappen 1:29.659 24
2 14 Fernando Alonso 1:29.845 +0.186 24
3 11 Sergio Pérez 1:29.868 +0.209 23
4 63 George Russell 1:29.939 +0.280 23
5 16 Charles Leclerc 1:30.030 +0.371 24
6 55 Carlos Sainz 1:30.164 +0.505 24
7 4 Lando Norris 1:30.231 +0.572 26
8 44 Lewis Hamilton 1:30.236 +0.577 21
9 18 Lance Stroll 1:30.580 +0.921 18
10 23 Alexander Albon 1:30.747 +1.088 26
11 77 Valtteri Bottas 1:30.783 +1.124 26
12 3 Daniel Ricciardo 1:30.917 +1.258 25
13 31 Esteban Ocon 1:30.945 +1.286 27
14 2 Logan Sargeant 1:30.966 +1.307 27
15 81 Oscar Piastri 1:30.977 +1.318 22
16 22 Yuki Tsunoda 1:31.036 +1.377 25
17 10 Pierre Gasly 1:31.046 +1.387 25
18 24 Guanyu Zhou 1:31.131 +1.472 24
19 27 Nico Hülkenberg 1:31.411 +1.752 19
20 20 Kevin Magnussen 1:31.577 +1.918 18
Classified by best lap · source OpenF1 (2023+)
PosPilotaGiro miglioreDistaccoGiri
1 14 Fernando Alonso 1:28.827 28
2 63 George Russell 1:29.057 +0.230 24
3 1 Max Verstappen 1:29.158 +0.331 27
4 16 Charles Leclerc 1:29.180 +0.353 25
5 11 Sergio Pérez 1:29.300 +0.473 27
6 18 Lance Stroll 1:29.336 +0.509 27
7 55 Carlos Sainz 1:29.455 +0.628 26
8 44 Lewis Hamilton 1:29.504 +0.677 22
9 10 Pierre Gasly 1:29.528 +0.701 29
10 81 Oscar Piastri 1:29.594 +0.767 27
11 22 Yuki Tsunoda 1:29.666 +0.839 28
12 4 Lando Norris 1:29.758 +0.931 23
13 24 Guanyu Zhou 1:29.777 +0.950 27
14 23 Alexander Albon 1:29.789 +0.962 28
15 31 Esteban Ocon 1:29.901 +1.074 27
16 2 Logan Sargeant 1:29.934 +1.107 27
17 20 Kevin Magnussen 1:29.985 +1.158 24
18 27 Nico Hülkenberg 1:30.077 +1.250 26
19 3 Daniel Ricciardo 1:30.088 +1.261 29
20 77 Valtteri Bottas 1:30.153 +1.326 27
Classified by best lap · source OpenF1 (2023+)
PosPilotaGiro miglioreDistaccoGiri
1 1 Max Verstappen 1:28.412 13
2 16 Charles Leclerc 1:28.608 +0.196 16
3 11 Sergio Pérez 1:28.906 +0.494 13
4 63 George Russell 1:28.964 +0.552 17
5 4 Lando Norris 1:28.971 +0.559 11
6 14 Fernando Alonso 1:29.038 +0.626 14
7 18 Lance Stroll 1:29.127 +0.715 14
8 81 Oscar Piastri 1:29.213 +0.801 11
9 44 Lewis Hamilton 1:29.268 +0.856 19
10 50 Oliver Bearman 1:29.306 +0.894 22
11 20 Kevin Magnussen 1:29.485 +1.073 12
12 10 Pierre Gasly 1:29.546 +1.134 13
13 22 Yuki Tsunoda 1:29.572 +1.160 18
14 31 Esteban Ocon 1:29.575 +1.163 13
15 27 Nico Hülkenberg 1:29.675 +1.263 11
16 3 Daniel Ricciardo 1:29.740 +1.328 15
17 23 Alexander Albon 1:29.808 +1.396 13
18 77 Valtteri Bottas 1:30.083 +1.671 21
19 24 Guanyu Zhou 1:30.739 +2.327 12
20 2 Logan Sargeant 2:27.994 +59.582 2
Classified by best lap · source OpenF1 (2023+)
#PilotaTempo sul giroGiro
1 16 Charles Leclerc 1:31.632 L50
2 44 Lewis Hamilton 1:31.746 L38
3 1 Max Verstappen 1:31.773 L50
4 16 Charles Leclerc 1:31.931 L49
5 44 Lewis Hamilton 1:31.943 L45
6 4 Lando Norris 1:31.944 L40
7 1 Max Verstappen 1:31.995 L39
8 44 Lewis Hamilton 1:32.027 L42
9 16 Charles Leclerc 1:32.029 L47
10 44 Lewis Hamilton 1:32.041 L43
Top 10 più veloce race giri — #1 is the più veloce lap of la gara(FL).
Pit stop · a confronto
20s 25s 30s 35s 40s 45s 50s 55s 60s 65s mediana 22.2s Lewis Hamilton · L36 · 20.170s Max Verstappen · L7 · 20.607s George Russell · L7 · 21.013s Nico Hülkenberg · L33 · 21.035s Oscar Piastri · L7 · 21.427s Kevin Magnussen · L7 · 21.460s Yuki Tsunoda · L7 · 21.694s Alexander Albon · L7 · 21.723s Fernando Alonso · L7 · 22.129s Sergio Pérez · L7 · 22.196s Lando Norris · L37 · 22.211s Oliver Bearman · L7 · 22.457s Esteban Ocon · L7 · 22.502s Valtteri Bottas · L7 · 22.795s Valtteri Bottas · L35 · 23.281s Charles Leclerc · L7 · 23.419s Logan Sargeant · L7 · 23.645s Guanyu Zhou · L41 · 46.381s Daniel Ricciardo · L7 · 63.364s
più veloce 20.170s Lewis Hamilton più lenta 63.364s Daniel Ricciardo tempo di transito nella dalla pit lane — un punto per sosta
PilotaSostaGiroTempoTransito in dalla pit lane
23 Alexander Albon 1 7 20:15:53 21.723s
22 Yuki Tsunoda 1 7 20:15:51 21.694s
2 Logan Sargeant 1 7 20:16:01 23.645s
3 Daniel Ricciardo 1 7 20:15:57 63.364s
20 Kevin Magnussen 1 7 20:15:53 21.460s
1 Max Verstappen 1 7 20:15:25 20.607s
63 George Russell 1 7 20:15:42 21.013s
11 Sergio Pérez 1 7 20:15:30 22.196s
81 Oscar Piastri 1 7 20:15:36 21.427s
31 Esteban Ocon 1 7 20:15:59 22.502s
16 Charles Leclerc 1 7 20:15:31 23.419s
77 Valtteri Bottas 1 7 20:16:00 22.795s
50 Oliver Bearman 1 7 20:15:51 22.457s
14 Fernando Alonso 1 7 20:15:37 22.129s
27 Nico Hülkenberg 1 33 20:59:21 21.035s
77 Valtteri Bottas 2 35 21:02:58 23.281s
44 Lewis Hamilton 1 36 21:03:38 20.170s
4 Lando Norris 1 37 21:05:08 22.211s
24 Guanyu Zhou 1 41 21:12:03 46.381s
soste
SG 10 20 30 40 L50
1
1
M6
H44
11
1
M6
H44
16
1
M6
H44
81
1
M6
H44·+1
14
1
M6·+1
H44·+1
63
1
M6
H44
50
1
S6
H44
4
1
M36
S14·+1
44
1
M35
S15·+3
27
1
M32
H18
23
1
M6
H44
20
1
M6
H44
31
1
M6
H43
2
1
M6
H43
22
1
M6
H43
3
1
M6
H43
77
2
S6
H28
S15
24
1
M40
S9
18
0
M5·+1
10
0
M1
S Soft M Medium H Hard I Intermediate W Wet SC·VSC sosta ai box penalità scontata ai box
Gara · larghezza barra = giri su quel treno, ·+N = montato usato con N giri pregressi · fonte OpenF1 (2023+)
Mescole designate per questo Gran Premio
C2 Dura C3 Media C4 Morbida
Pirelli designa tre delle sue mescole slick per ogni evento; più alto è il numero C, più morbida è la gomma. Documento FIA ↗
Più posizioni guadagnate in pista
24
+10
P20→P18
27
+8
P15→P10
50
+7
P11→P7
4
+5
P6→P8
44
+5
P8→P9
23
+4
P12→P11
31
+4
P17→P13
11
+3
P3→P2
Più posizioni perse
Guanyu Zhou −9 Lando Norris −7 Lewis Hamilton −6
Gara · Somma delle posizioni guadagnate in pista giro per giro — esclusi il giro di partenza e i propri giri ai box. Dati dei giri di gara dal 1996.
PilotaTipoGiroScontataAssegnataMotivo
4 Lando Norris No further action Alleged false start. (No further action.) Documento FIA ↗
Alleged false start. (No further action.) Documento FIA ↗
11 Sergio Pérez Time penalty 15 A fine gara +5s · 1pt Unsafe release of car 11. (5 second time penalty. 1 penalty point (total of 8 for the 12 month period).) Documento FIA ↗
Giro 15 · Scontata A fine gara · +5s · 1pt Unsafe release of car 11. (5 second time penalty. 1 penalty point (total of 8 for the 12 month period).) Documento FIA ↗
20 Kevin Magnussen Time penalty 16 A fine gara +10s Car 20 left the track at T4 and gained a lasting advantage. (10 second time penalty.) Documento FIA ↗
Giro 16 · Scontata A fine gara · +10s Car 20 left the track at T4 and gained a lasting advantage. (10 second time penalty.) Documento FIA ↗
20 Kevin Magnussen Time penalty 22 A fine gara +10s · 3pt Car 20 collided with Car 23 at Turn 4. (10 second time penalty. 3 penalty points (total of 3 for the 12 month period).) Documento FIA ↗
Giro 22 · Scontata A fine gara · +10s · 3pt Car 20 collided with Car 23 at Turn 4. (10 second time penalty. 3 penalty points (total of 3 for the 12 month period).) Documento FIA ↗
4 Lando Norris Black-and-white flag warning 41 WEAVING ON STRAIGHT
Giro 41 WEAVING ON STRAIGHT
Giro = giro in cui è stata inflitta la penalità · Scontata = giro in cui è stata scontata ai box (vuoto: sommata al tempo di gara)
Time, drive-through and stop-go penalties come from race control messages (OpenF1, 2023+). Griglia penalties never appear there — the stewards publish them as documents after the session — so they are worked back from the starting grid against the le qualifiche classification, which gives places actually lost rather than the figure written in the decision.
PilotaTipoGiroScontataAssegnataMotivo
63 George Russell Black-and-white flag warning FAILING TO FOLLOW RACE DIRECTORS INSTRUCTIONS – CROSSING THE LINE AT PIT ENTRY
FAILING TO FOLLOW RACE DIRECTORS INSTRUCTIONS – CROSSING THE LINE AT PIT ENTRY
18 Lance Stroll Giri cancellati TRACK LIMITS
TRACK LIMITS
50 Oliver Bearman Giri cancellati TRACK LIMITS (PIT)
TRACK LIMITS (PIT)
23 Alexander Albon Giri cancellati TRACK LIMITS
TRACK LIMITS
Giro = giro in cui è stata inflitta la penalità · Scontata = giro in cui è stata scontata ai box (vuoto: sommata al tempo di gara)
Time, drive-through and stop-go penalties come from race control messages (OpenF1, 2023+). Griglia penalties never appear there — the stewards publish them as documents after the session — so they are worked back from the starting grid against the le qualifiche classification, which gives places actually lost rather than the figure written in the decision.
PilotaTipoGiroScontataAssegnataMotivo
44 Lewis Hamilton Black-and-white flag warning €15,000 Car 44 unnecessarily impeding Car 2 in Turn 11 at 20:16. (Warning. The competitor (Mercedes-AMG PETRONAS F1 Team) is fined €15,000.) Documento FIA ↗
€15,000 Car 44 unnecessarily impeding Car 2 in Turn 11 at 20:16. (Warning. The competitor (Mercedes-AMG PETRONAS F1 Team) is fined €15,000.) Documento FIA ↗
18 Lance Stroll Black-and-white flag warning FAILING TO FOLLOW RACE DIRECTORS INSTRUCTIONS – TRACK LIMITS
FAILING TO FOLLOW RACE DIRECTORS INSTRUCTIONS – TRACK LIMITS
Giro = giro in cui è stata inflitta la penalità · Scontata = giro in cui è stata scontata ai box (vuoto: sommata al tempo di gara)
Time, drive-through and stop-go penalties come from race control messages (OpenF1, 2023+). Griglia penalties never appear there — the stewards publish them as documents after the session — so they are worked back from the starting grid against the le qualifiche classification, which gives places actually lost rather than the figure written in the decision.
PilotaTipoGiroScontataAssegnataMotivo
10 Pierre Gasly Black-and-white flag warning FAILING TO FOLLOW RACE DIRECTORS INSTRUCTIONS – TRACK LIMITS
FAILING TO FOLLOW RACE DIRECTORS INSTRUCTIONS – TRACK LIMITS
Giro = giro in cui è stata inflitta la penalità · Scontata = giro in cui è stata scontata ai box (vuoto: sommata al tempo di gara)
Time, drive-through and stop-go penalties come from race control messages (OpenF1, 2023+). Griglia penalties never appear there — the stewards publish them as documents after the session — so they are worked back from the starting grid against the le qualifiche classification, which gives places actually lost rather than the figure written in the decision.
PilotaTipoGiroScontataAssegnataMotivo
22 Yuki Tsunoda Time penalty A fine gara +5s Unsafe release of car 22. (5 second time penalty.) Documento FIA ↗
Scontata A fine gara · +5s Unsafe release of car 22. (5 second time penalty.) Documento FIA ↗
Giro = giro in cui è stata inflitta la penalità · Scontata = giro in cui è stata scontata ai box (vuoto: sommata al tempo di gara)
Time, drive-through and stop-go penalties come from race control messages (OpenF1, 2023+). Griglia penalties never appear there — the stewards publish them as documents after the session — so they are worked back from the starting grid against the le qualifiche classification, which gives places actually lost rather than the figure written in the decision.
Decisioni dei commissari senza sanzione nella tabella sopra
PilotaOggettoDocumento FIA
24 Guanyu Zhou Failing to set a lap time within 107% Apri ↗
The sanction itself — fine, reprimand, licence points, or no further action — is written inside the PDF, which we do not read yet. The document link is the source of record.
DocTitoloOggettoPublished(CET)
Event Notes - Pirelli Preview ↗ 2024-03-05 13:51
2024-03-05 13:51 CET
Event Notes - Circuito Map, Pit Lane and Red Zone ↗ 2024-03-06 14:30
2024-03-06 14:30 CET
Gara Director's Event Notes ↗ 2024-03-06 14:30
2024-03-06 14:30 CET
Event Notes - Pit Lane Drawing V2 ↗ 2024-03-06 16:21
2024-03-06 16:21 CET
Car Presentation and Display Procedure ↗ 2024-03-06 20:30
2024-03-06 20:30 CET
PU elements usati per driver up to now ↗ 2024-03-07 10:32
2024-03-07 10:32 CET
RNCs usati per driver up to now ↗ 2024-03-07 10:33
2024-03-07 10:33 CET
Self scrutineering ↗ 2024-03-07 11:30
2024-03-07 11:30 CET
Car Presentation Submissions ↗ 2024-03-07 12:20
2024-03-07 12:20 CET
New RNCs for this Competition ↗ 2024-03-07 14:36
2024-03-07 14:36 CET
P1 Classification ↗ 2024-03-07 15:55
2024-03-07 15:55 CET
Summons - Car 2 - Alleged Impeding by Car 44 ↗ 2 Logan Sargeant 2024-03-07 18:47
2 Logan Sargeant 2024-03-07 18:47 CET
Summons - Car 44 - Alleged Impeding of Car 2 ↗ 44 Lewis Hamilton 2024-03-07 18:52
44 Lewis Hamilton 2024-03-07 18:52 CET
P2 Classification ↗ 2024-03-07 19:30
2024-03-07 19:30 CET
Infringement - Car 44 - Impeding of Car 2 ↗ 44 Lewis Hamilton 2024-03-07 19:55
44 Lewis Hamilton 2024-03-07 19:55 CET
Decision - Calendario Clarification ↗ 2024-03-07 20:05
2024-03-07 20:05 CET
P1 and P2 scrutineering ↗ 2024-03-07 21:21
2024-03-07 21:21 CET
Gara Director's Note - SC2-SC1 Time ↗ 2024-03-07 21:25
2024-03-07 21:25 CET
Event Notes - Pirelli Preview V2 ↗ 2024-03-08 10:41
2024-03-08 10:41 CET
Post-Qualifiche Procedure ↗ 2024-03-08 11:05
2024-03-08 11:05 CET
Decision - Pilota change Scuderia Ferrari ↗ 2024-03-08 12:40
2024-03-08 12:40 CET
Revised Entry List ↗ 2024-03-08 12:45
2024-03-08 12:45 CET
Pilota Oliver Bearman, car 38 ↗ 50 Oliver Bearman 2024-03-08 14:06
50 Oliver Bearman 2024-03-08 14:06 CET
New RNCs for this Competition ↗ 2024-03-08 14:56
2024-03-08 14:56 CET
New PU elements for this Competition ↗ 2024-03-08 14:56
2024-03-08 14:56 CET
P3 Classification ↗ 2024-03-08 15:50
2024-03-08 15:50 CET
New RNCs for this Competition ↗ 2024-03-08 18:25
2024-03-08 18:25 CET
Qualifiche Deleted Giro Times ↗ 2024-03-08 19:20
2024-03-08 19:20 CET
Decision - Qualifiche SC2-SC1 Times ↗ 2024-03-08 19:31
2024-03-08 19:31 CET
Provisional Qualifiche Classification ↗ 2024-03-08 19:31
2024-03-08 19:31 CET
Decision - Car 24 - Failing to set a lap time within 107% ↗ 24 Guanyu Zhou 2024-03-08 19:54
24 Guanyu Zhou 2024-03-08 19:54 CET
P3 and Qualifiche scrutineering ↗ 2024-03-08 21:21
2024-03-08 21:21 CET
Final Qualifiche Classification ↗ 2024-03-08 21:26
2024-03-08 21:26 CET
Provisional Starting Griglia ↗ 2024-03-08 21:35
2024-03-08 21:35 CET
Pre-Gara Procedure ↗ 2024-03-09 11:01
2024-03-09 11:01 CET
Post-Gara Procedure ↗ 2024-03-09 11:05
2024-03-09 11:05 CET
Parts and parameters been replaced and or changed during Parc Fermé ↗ 2024-03-09 15:55
2024-03-09 15:55 CET
Final Starting Griglia ↗ 2024-03-09 16:00
2024-03-09 16:00 CET
Gara Deleted Giro Times ↗ 2024-03-09 19:41
2024-03-09 19:41 CET
Summons - Car 22 - Alleged unsafe release ↗ 22 Yuki Tsunoda 2024-03-09 19:41
22 Yuki Tsunoda 2024-03-09 19:41 CET
Provisional Gara Classification ↗ 2024-03-09 19:46
2024-03-09 19:46 CET
Decision - Car 4 - Alleged false start ↗ 4 Lando Norris 2024-03-09 21:20
4 Lando Norris 2024-03-09 21:20 CET
Gara scrutineering ↗ 2024-03-09 21:35
2024-03-09 21:35 CET
Infringement - Car 11 - Unsafe release ↗ 11 Sergio Pérez 2024-03-09 21:39
11 Sergio Pérez 2024-03-09 21:39 CET
Infringement - Car 20 - Leaving the track and gaining an advantage ↗ 20 Kevin Magnussen 2024-03-09 21:43
20 Kevin Magnussen 2024-03-09 21:43 CET
Infringement - Car 20 - Causing a Collision ↗ 20 Kevin Magnussen 2024-03-09 21:43
20 Kevin Magnussen 2024-03-09 21:43 CET
Infringement - Car 22 - Unsafe release ↗ 22 Yuki Tsunoda 2024-03-09 22:06
22 Yuki Tsunoda 2024-03-09 22:06 CET
Final Gara Classification ↗ 2024-03-09 22:20
2024-03-09 22:20 CET
Campionato Punti ↗ 2024-03-09 22:25
2024-03-09 22:25 CET
FIA official decisions and documents (fia.com) · PDF original PDF links
Record Basis · Calculation basis
Gara order is the final classification(post-race penalties applied) · le qualifiche session data 2003+ · lap times 1996+ · pit stops 2012+ (pit-lane transit, not stationary time) · Ritiro = Finished(Finished·+N Giri) non-Finished statuses
Fonti dei dati: Jolpica-F1 (Ergast compatible API) · weather·Direzione gara OpenF1 (2023+) · Last fetched: 2026-09-05 14:15